Aviation Digital Data Service (ADDS)

Output produced by METARs form (0032 UTC 21 January 2019)
found at http://www.aviationweather.gov/metar/data/
 
METAR text: VEIM 201030Z 21003KT 5000 HZ FEW018 20/09 Q1014 NOSIG
Conditions at: VEIM (IMPHAL/TULIHAL , IN) observed 1030 UTC 20 January 2019
Temperature: 20.0°C (68°F)
Dewpoint: 9.0°C (48°F) [RH = 49%]
Pressure (altimeter): 29.94 inches Hg (1014.0 mb)
Winds: from the SSW (210 degrees) at 3 MPH (3 knots; 1.5 m/s)
Visibility: 3 miles ( 5 km)
Ceiling: at least 12,000 feet AGL
Clouds: few clouds at 1800 feet AGL
Weather: HZ  (haze)

METAR text: VEIM 201000Z 14003KT 5000 HZ FEW018 21/09 Q1014 NOSIG
Conditions at: VEIM (IMPHAL/TULIHAL , IN) observed 1000 UTC 20 January 2019
Temperature: 21.0°C (70°F)
Dewpoint: 9.0°C (48°F) [RH = 46%]
Pressure (altimeter): 29.94 inches Hg (1014.0 mb)
Winds: from the SE (140 degrees) at 3 MPH (3 knots; 1.5 m/s)
Visibility: 3 miles ( 5 km)
Ceiling: at least 12,000 feet AGL
Clouds: few clouds at 1800 feet AGL
Weather: HZ  (haze)

METAR text: VEIM 200930Z 13003KT 5000 HZ FEW018 22/09 Q1013 NOSIG
Conditions at: VEIM (IMPHAL/TULIHAL , IN) observed 0930 UTC 20 January 2019
Temperature: 22.0°C (72°F)
Dewpoint: 9.0°C (48°F) [RH = 43%]
Pressure (altimeter): 29.91 inches Hg (1013.0 mb)
Winds: from the SE (130 degrees) at 3 MPH (3 knots; 1.5 m/s)
Visibility: 3 miles ( 5 km)
Ceiling: at least 12,000 feet AGL
Clouds: few clouds at 1800 feet AGL
Weather: HZ  (haze)

METAR text: VEIM 200900Z 35003KT 5000 HZ FEW010 23/07 Q1013 NOSIG
Conditions at: VEIM (IMPHAL/TULIHAL , IN) observed 0900 UTC 20 January 2019
Temperature: 23.0°C (73°F)
Dewpoint: 7.0°C (45°F) [RH = 36%]
Pressure (altimeter): 29.91 inches Hg (1013.0 mb)
Winds: from the N (350 degrees) at 3 MPH (3 knots; 1.5 m/s)
Visibility: 3 miles ( 5 km)
Ceiling: at least 12,000 feet AGL
Clouds: few clouds at 1000 feet AGL
Weather: HZ  (haze)

METAR text: VEIM 200830Z 20003KT 5000 HZ FEW010 23/09 Q1013 NOSIG
Conditions at: VEIM (IMPHAL/TULIHAL , IN) observed 0830 UTC 20 January 2019
Temperature: 23.0°C (73°F)
Dewpoint: 9.0°C (48°F) [RH = 41%]
Pressure (altimeter): 29.91 inches Hg (1013.0 mb)
Winds: from the SSW (200 degrees) at 3 MPH (3 knots; 1.5 m/s)
Visibility: 3 miles ( 5 km)
Ceiling: at least 12,000 feet AGL
Clouds: few clouds at 1000 feet AGL
Weather: HZ  (haze)

METAR text: VEIM 200800Z 19004KT 5000 HZ FEW010 21/09 Q1015 NOSIG
Conditions at: VEIM (IMPHAL/TULIHAL , IN) observed 0800 UTC 20 January 2019
Temperature: 21.0°C (70°F)
Dewpoint: 9.0°C (48°F) [RH = 46%]
Pressure (altimeter): 29.97 inches Hg (1015.0 mb)
Winds: from the S (190 degrees) at 5 MPH (4 knots; 2.1 m/s)
Visibility: 3 miles ( 5 km)
Ceiling: at least 12,000 feet AGL
Clouds: few clouds at 1000 feet AGL
Weather: HZ  (haze)

METAR text: VEIM 200730Z 20004KT 5000 HZ FEW010 21/09 Q1015 NOSIG
Conditions at: VEIM (IMPHAL/TULIHAL , IN) observed 0730 UTC 20 January 2019
Temperature: 21.0°C (70°F)
Dewpoint: 9.0°C (48°F) [RH = 46%]
Pressure (altimeter): 29.97 inches Hg (1015.0 mb)
Winds: from the SSW (200 degrees) at 5 MPH (4 knots; 2.1 m/s)
Visibility: 3 miles ( 5 km)
Ceiling: at least 12,000 feet AGL
Clouds: few clouds at 1000 feet AGL
Weather: HZ  (haze)

METAR text: VEIM 200700Z 23003KT 5000 HZ FEW010 21/08 Q1015 NOSIG
Conditions at: VEIM (IMPHAL/TULIHAL , IN) observed 0700 UTC 20 January 2019
Temperature: 21.0°C (70°F)
Dewpoint: 8.0°C (46°F) [RH = 43%]
Pressure (altimeter): 29.97 inches Hg (1015.0 mb)
Winds: from the SW (230 degrees) at 3 MPH (3 knots; 1.5 m/s)
Visibility: 3 miles ( 5 km)
Ceiling: at least 12,000 feet AGL
Clouds: few clouds at 1000 feet AGL
Weather: HZ  (haze)

METAR text: VEIM 200630Z 18005KT 5000 HZ FEW010 20/08 Q1016 NOSIG
Conditions at: VEIM (IMPHAL/TULIHAL , IN) observed 0630 UTC 20 January 2019
Temperature: 20.0°C (68°F)
Dewpoint: 8.0°C (46°F) [RH = 46%]
Pressure (altimeter): 30.00 inches Hg (1016.0 mb)
Winds: from the S (180 degrees) at 6 MPH (5 knots; 2.6 m/s)
Visibility: 3 miles ( 5 km)
Ceiling: at least 12,000 feet AGL
Clouds: few clouds at 1000 feet AGL
Weather: HZ  (haze)

METAR text: VEIM 200600Z 00000KT 4000 HZ FEW010 20/09 Q1017 BECMG 5000 HZ
Conditions at: VEIM (IMPHAL/TULIHAL , IN) observed 0600 UTC 20 January 2019
Temperature: 20.0°C (68°F)
Dewpoint: 9.0°C (48°F) [RH = 49%]
Pressure (altimeter): 30.03 inches Hg (1017.0 mb)
Winds: calm
Visibility: 2.49 miles (4.01 km)
Ceiling: at least 12,000 feet AGL
Clouds: few clouds at 1000 feet AGL
Weather: HZ  (haze)

METAR text: VEIM 200530Z 22003KT 3000 HZ FEW010 19/09 Q1018 NOSIG
Conditions at: VEIM (IMPHAL/TULIHAL , IN) observed 0530 UTC 20 January 2019
Temperature: 19.0°C (66°F)
Dewpoint: 9.0°C (48°F) [RH = 52%]
Pressure (altimeter): 30.06 inches Hg (1018.0 mb)
Winds: from the SW (220 degrees) at 3 MPH (3 knots; 1.5 m/s)
Visibility: 1.86 miles (2.99 km)
Ceiling: at least 12,000 feet AGL
Clouds: few clouds at 1000 feet AGL
Weather: HZ  (haze)

METAR text: VEIM 200500Z 27003KT 3000 HZ FEW010 17/09 Q1018 NOSIG
Conditions at: VEIM (IMPHAL/TULIHAL , IN) observed 0500 UTC 20 January 2019
Temperature: 17.0°C (63°F)
Dewpoint: 9.0°C (48°F) [RH = 59%]
Pressure (altimeter): 30.06 inches Hg (1018.0 mb)
Winds: from the W (270 degrees) at 3 MPH (3 knots; 1.5 m/s)
Visibility: 1.86 miles (2.99 km)
Ceiling: at least 12,000 feet AGL
Clouds: few clouds at 1000 feet AGL
Weather: HZ  (haze)

METAR text: VEIM 200430Z 00000KT 3000 HZ FEW010 16/08 Q1019 NOSIG
Conditions at: VEIM (IMPHAL/TULIHAL , IN) observed 0430 UTC 20 January 2019
Temperature: 16.0°C (61°F)
Dewpoint: 8.0°C (46°F) [RH = 59%]
Pressure (altimeter): 30.09 inches Hg (1019.0 mb)
Winds: calm
Visibility: 1.86 miles (2.99 km)
Ceiling: at least 12,000 feet AGL
Clouds: few clouds at 1000 feet AGL
Weather: HZ  (haze)

METAR text: VEIM 200400Z 00000KT 2500 HZ FEW010 15/08 Q1019 BECMG 3000 HZ
Conditions at: VEIM (IMPHAL/TULIHAL , IN) observed 0400 UTC 20 January 2019
Temperature: 15.0°C (59°F)
Dewpoint: 8.0°C (46°F) [RH = 63%]
Pressure (altimeter): 30.09 inches Hg (1019.0 mb)
Winds: calm
Visibility: 1.55 miles (2.49 km)
Ceiling: at least 12,000 feet AGL
Clouds: few clouds at 1000 feet AGL
Weather: HZ  (haze)

METAR text: VEIM 200330Z 00000KT 2000 HZ FEW010 14/08 Q1019 NOSIG
Conditions at: VEIM (IMPHAL/TULIHAL , IN) observed 0330 UTC 20 January 2019
Temperature: 14.0°C (57°F)
Dewpoint: 8.0°C (46°F) [RH = 67%]
Pressure (altimeter): 30.09 inches Hg (1019.0 mb)
Winds: calm
Visibility: 1.24 miles (2.00 km)
Ceiling: at least 12,000 feet AGL
Clouds: few clouds at 1000 feet AGL
Weather: HZ  (haze)

METAR text: VEIM 200300Z 00000KT 2000 HZ FEW018 13/08 Q1019 NOSIG
Conditions at: VEIM (IMPHAL/TULIHAL , IN) observed 0300 UTC 20 January 2019
Temperature: 13.0°C (55°F)
Dewpoint: 8.0°C (46°F) [RH = 72%]
Pressure (altimeter): 30.09 inches Hg (1019.0 mb)
Winds: calm
Visibility: 1.24 miles (2.00 km)
Ceiling: at least 12,000 feet AGL
Clouds: few clouds at 1800 feet AGL
Weather: HZ  (haze)

Forecast for: VEIM (IMPHAL/TULIHAL , IN)
Text: TAF VEIM 202000Z 2021/2106 00000KT 2000 BR FEW018 SCT100
Forecast period: 2100 to 2300 UTC 20 January 2019
Forecast type: FROM: standard forecast or significant change
Winds: calm
Visibility: 1.24 miles (2.00 km)
Ceiling: at least 12,000 feet AGL
Clouds: few clouds at 1800 feet AGL
scattered clouds at 10000 feet AGL
Weather: BR  (mist)
Text: BECMG 2023/2102 0500 FG VV///
Forecast period: 2300 UTC 20 January 2019 to 0300 UTC 21 January 2019
Forecast type: BECOMING: Conditions expected to become as follows by 0200 UTC 21 January 2019
Winds: calm
Visibility: 0.31 miles (0.50 km)
Ceiling: at least 12,000 feet AGL
Clouds: few clouds at 1800 feet AGL
scattered clouds at 10000 feet AGL
Weather: FG  (fog)
Text: BECMG 2103/2106 05006KT 3000 HZ FEW020
Forecast period: 0300 to 0600 UTC 21 January 2019
Forecast type: BECOMING: Conditions expected to become as follows by 0600 UTC 21 January 2019
Winds: from the NE (50 degrees) at 7 MPH (6 knots; 3.1 m/s)
Visibility: 1.86 miles (2.99 km)
Ceiling: at least 12,000 feet AGL
Clouds: few clouds at 2000 feet AGL
Weather: HZ  (haze)